sensor_id;sensor_type;location;lat;lon;timestamp;P1;P2;P0
29460;PMS7003;16428;47.836;35.106;2024-03-29T00:01:33;2.67;2.67;2.00
29460;PMS7003;16428;47.836;35.106;2024-03-29T00:03:59;3.67;3.67;3.00
29460;PMS7003;16428;47.836;35.106;2024-03-29T00:06:25;6.00;6.00;4.67
29460;PMS7003;16428;47.836;35.106;2024-03-29T00:08:51;5.00;4.67;4.00
29460;PMS7003;16428;47.836;35.106;2024-03-29T00:11:16;4.50;4.50;3.25
29460;PMS7003;16428;47.836;35.106;2024-03-29T00:13:43;5.33;2.67;2.67
29460;PMS7003;16428;47.836;35.106;2024-03-29T00:16:09;5.00;5.00;4.00
29460;PMS7003;16428;47.836;35.106;2024-03-29T00:18:37;2.00;2.00;2.00
29460;PMS7003;16428;47.836;35.106;2024-03-29T00:21:03;9.00;5.00;4.00
29460;PMS7003;16428;47.836;35.106;2024-03-29T00:23:30;3.00;3.00;2.00
29460;PMS7003;16428;47.836;35.106;2024-03-29T00:25:56;4.00;4.00;3.00
29460;PMS7003;16428;47.836;35.106;2024-03-29T00:28:23;4.67;4.00;3.33
29460;PMS7003;16428;47.836;35.106;2024-03-29T00:30:50;9.33;5.33;4.33
29460;PMS7003;16428;47.836;35.106;2024-03-29T00:33:15;7.33;5.00;4.00
29460;PMS7003;16428;47.836;35.106;2024-03-29T00:35:41;10.25;5.50;4.75
29460;PMS7003;16428;47.836;35.106;2024-03-29T00:38:07;4.00;4.00;4.00
29460;PMS7003;16428;47.836;35.106;2024-03-29T00:40:35;7.67;4.33;3.00
29460;PMS7003;16428;47.836;35.106;2024-03-29T00:43:01;5.67;5.00;3.33
29460;PMS7003;16428;47.836;35.106;2024-03-29T00:45:28;6.00;4.00;4.00
29460;PMS7003;16428;47.836;35.106;2024-03-29T00:47:54;4.33;4.33;4.00
29460;PMS7003;16428;47.836;35.106;2024-03-29T00:50:20;7.50;6.00;4.00
29460;PMS7003;16428;47.836;35.106;2024-03-29T00:52:47;5.00;4.67;4.00
29460;PMS7003;16428;47.836;35.106;2024-03-29T00:55:14;4.33;4.33;3.33
29460;PMS7003;16428;47.836;35.106;2024-03-29T00:57:40;6.00;4.00;3.00
29460;PMS7003;16428;47.836;35.106;2024-03-29T01:00:06;6.25;6.25;5.25
29460;PMS7003;16428;47.836;35.106;2024-03-29T01:02:33;5.33;5.33;4.00
29460;PMS7003;16428;47.836;35.106;2024-03-29T01:04:59;4.00;4.00;3.33
29460;PMS7003;16428;47.836;35.106;2024-03-29T01:07:25;4.00;4.00;3.00
29460;PMS7003;16428;47.836;35.106;2024-03-29T01:09:51;4.67;4.67;4.00
29460;PMS7003;16428;47.836;35.106;2024-03-29T01:12:17;5.00;5.00;4.33
29460;PMS7003;16428;47.836;35.106;2024-03-29T01:14:44;7.33;4.00;3.00
29460;PMS7003;16428;47.836;35.106;2024-03-29T01:17:10;13.75;7.50;5.00
29460;PMS7003;16428;47.836;35.106;2024-03-29T01:19:36;4.33;4.33;3.33
29460;PMS7003;16428;47.836;35.106;2024-03-29T01:22:03;5.00;4.00;3.00
29460;PMS7003;16428;47.836;35.106;2024-03-29T01:24:30;4.67;4.67;4.00
29460;PMS7003;16428;47.836;35.106;2024-03-29T01:26:56;7.00;5.00;4.00
29460;PMS7003;16428;47.836;35.106;2024-03-29T01:29:22;11.25;6.50;5.00
29460;PMS7003;16428;47.836;35.106;2024-03-29T01:31:48;5.75;4.00;2.75
29460;PMS7003;16428;47.836;35.106;2024-03-29T01:34:14;4.75;4.75;4.25
29460;PMS7003;16428;47.836;35.106;2024-03-29T01:36:40;5.50;5.50;5.00
29460;PMS7003;16428;47.836;35.106;2024-03-29T01:39:05;7.50;5.25;3.25
29460;PMS7003;16428;47.836;35.106;2024-03-29T01:41:34;4.50;4.50;3.25
29460;PMS7003;16428;47.836;35.106;2024-03-29T01:44:00;4.00;4.00;3.00
29460;PMS7003;16428;47.836;35.106;2024-03-29T01:46:25;3.75;3.75;3.25
29460;PMS7003;16428;47.836;35.106;2024-03-29T01:48:52;4.75;4.75;4.25
29460;PMS7003;16428;47.836;35.106;2024-03-29T01:51:22;5.00;5.00;3.50
29460;PMS7003;16428;47.836;35.106;2024-03-29T01:53:50;8.00;6.50;5.50
29460;PMS7003;16428;47.836;35.106;2024-03-29T01:56:19;10.75;7.00;6.00
29460;PMS7003;16428;47.836;35.106;2024-03-29T01:58:48;7.00;7.00;5.50
29460;PMS7003;16428;47.836;35.106;2024-03-29T02:01:16;7.00;5.50;4.25
29460;PMS7003;16428;47.836;35.106;2024-03-29T02:03:44;7.00;7.00;6.00
29460;PMS7003;16428;47.836;35.106;2024-03-29T02:06:10;9.00;6.75;5.25
29460;PMS7003;16428;47.836;35.106;2024-03-29T02:08:38;8.00;3.00;2.00
29460;PMS7003;16428;47.836;35.106;2024-03-29T02:11:04;6.25;6.25;5.00
29460;PMS7003;16428;47.836;35.106;2024-03-29T02:13:32;6.25;4.00;3.00
29460;PMS7003;16428;47.836;35.106;2024-03-29T02:15:58;5.00;4.33;3.33
29460;PMS7003;16428;47.836;35.106;2024-03-29T02:18:24;4.67;4.00;4.00
29460;PMS7003;16428;47.836;35.106;2024-03-29T02:20:50;9.00;5.33;5.00
29460;PMS7003;16428;47.836;35.106;2024-03-29T02:23:17;5.25;5.25;4.00
29460;PMS7003;16428;47.836;35.106;2024-03-29T02:25:46;8.75;7.25;5.50
29460;PMS7003;16428;47.836;35.106;2024-03-29T02:28:12;6.00;4.00;3.33
29460;PMS7003;16428;47.836;35.106;2024-03-29T02:30:38;9.00;7.00;5.00
29460;PMS7003;16428;47.836;35.106;2024-03-29T02:33:04;7.50;5.50;4.50
29460;PMS7003;16428;47.836;35.106;2024-03-29T02:35:30;5.50;5.25;4.00
29460;PMS7003;16428;47.836;35.106;2024-03-29T02:37:56;4.00;4.00;3.67
29460;PMS7003;16428;47.836;35.106;2024-03-29T02:40:22;7.75;7.25;5.25
29460;PMS7003;16428;47.836;35.106;2024-03-29T02:42:49;7.50;6.50;5.00
29460;PMS7003;16428;47.836;35.106;2024-03-29T02:45:16;7.25;7.25;6.25
29460;PMS7003;16428;47.836;35.106;2024-03-29T02:47:42;8.25;6.50;5.00
29460;PMS7003;16428;47.836;35.106;2024-03-29T02:50:09;6.33;6.33;6.00
29460;PMS7003;16428;47.836;35.106;2024-03-29T02:52:36;9.00;7.00;6.67
29460;PMS7003;16428;47.836;35.106;2024-03-29T02:55:02;10.00;7.67;6.00
29460;PMS7003;16428;47.836;35.106;2024-03-29T02:57:29;9.00;6.00;5.00
29460;PMS7003;16428;47.836;35.106;2024-03-29T02:59:55;6.00;6.00;5.00
29460;PMS7003;16428;47.836;35.106;2024-03-29T03:02:21;5.67;5.67;4.33
29460;PMS7003;16428;47.836;35.106;2024-03-29T03:12:16;5.75;5.75;5.25
29460;PMS7003;16428;47.836;35.106;2024-03-29T03:14:42;5.75;5.75;4.50
29460;PMS7003;16428;47.836;35.106;2024-03-29T03:17:08;6.00;6.00;5.25
29460;PMS7003;16428;47.836;35.106;2024-03-29T03:19:34;6.00;6.00;5.00
29460;PMS7003;16428;47.836;35.106;2024-03-29T03:22:00;11.33;10.00;6.00
29460;PMS7003;16428;47.836;35.106;2024-03-29T03:24:26;8.00;4.00;4.00
29460;PMS7003;16428;47.836;35.106;2024-03-29T03:26:52;16.00;7.33;6.00
29460;PMS7003;16428;47.836;35.106;2024-03-29T03:29:18;7.67;6.67;5.00
29460;PMS7003;16428;47.836;35.106;2024-03-29T03:31:44;6.00;6.00;5.00
29460;PMS7003;16428;47.836;35.106;2024-03-29T03:34:10;9.25;7.00;5.00
29460;PMS7003;16428;47.836;35.106;2024-03-29T03:36:36;7.50;7.25;5.00
29460;PMS7003;16428;47.836;35.106;2024-03-29T03:39:02;9.00;6.00;4.00
29460;PMS7003;16428;47.836;35.106;2024-03-29T03:41:28;7.00;7.00;5.00
29460;PMS7003;16428;47.836;35.106;2024-03-29T03:43:54;7.00;7.00;5.00
29460;PMS7003;16428;47.836;35.106;2024-03-29T03:46:20;7.67;7.33;6.00
29460;PMS7003;16428;47.836;35.106;2024-03-29T03:48:46;9.75;9.75;5.25
29460;PMS7003;16428;47.836;35.106;2024-03-29T03:51:12;6.75;6.50;5.00
29460;PMS7003;16428;47.836;35.106;2024-03-29T03:53:38;7.00;6.00;5.00
29460;PMS7003;16428;47.836;35.106;2024-03-29T03:56:05;9.25;8.75;5.75
29460;PMS7003;16428;47.836;35.106;2024-03-29T03:58:31;4.75;4.75;3.75
29460;PMS7003;16428;47.836;35.106;2024-03-29T04:00:57;5.00;5.00;4.00
29460;PMS7003;16428;47.836;35.106;2024-03-29T04:03:29;7.25;6.50;5.00
29460;PMS7003;16428;47.836;35.106;2024-03-29T04:05:55;10.25;6.75;6.00
29460;PMS7003;16428;47.836;35.106;2024-03-29T04:08:21;7.50;7.50;5.75
29460;PMS7003;16428;47.836;35.106;2024-03-29T04:10:48;8.25;8.25;6.25
29460;PMS7003;16428;47.836;35.106;2024-03-29T04:13:14;6.75;6.00;5.50
29460;PMS7003;16428;47.836;35.106;2024-03-29T04:15:40;9.50;9.50;6.50
29460;PMS7003;16428;47.836;35.106;2024-03-29T04:18:06;13.00;10.75;6.75
29460;PMS7003;16428;47.836;35.106;2024-03-29T04:20:32;14.00;8.00;5.75
29460;PMS7003;16428;47.836;35.106;2024-03-29T04:22:58;8.75;7.50;5.75
29460;PMS7003;16428;47.836;35.106;2024-03-29T04:25:23;11.25;6.75;6.25
29460;PMS7003;16428;47.836;35.106;2024-03-29T04:27:49;13.75;11.25;7.50
29460;PMS7003;16428;47.836;35.106;2024-03-29T04:30:15;12.00;9.00;6.00
29460;PMS7003;16428;47.836;35.106;2024-03-29T04:32:41;11.75;7.00;5.50
29460;PMS7003;16428;47.836;35.106;2024-03-29T04:35:07;15.25;12.50;9.00
29460;PMS7003;16428;47.836;35.106;2024-03-29T04:37:34;11.25;10.25;8.75
29460;PMS7003;16428;47.836;35.106;2024-03-29T04:40:00;18.00;13.25;10.00
29460;PMS7003;16428;47.836;35.106;2024-03-29T04:42:26;10.00;8.25;6.50
29460;PMS7003;16428;47.836;35.106;2024-03-29T04:44:52;16.50;9.00;6.00
29460;PMS7003;16428;47.836;35.106;2024-03-29T04:47:18;9.50;9.50;8.00
29460;PMS7003;16428;47.836;35.106;2024-03-29T04:49:44;12.50;9.25;7.25
29460;PMS7003;16428;47.836;35.106;2024-03-29T04:52:10;15.00;9.00;8.00
29460;PMS7003;16428;47.836;35.106;2024-03-29T04:54:36;8.50;8.50;7.25
29460;PMS7003;16428;47.836;35.106;2024-03-29T04:57:02;10.25;7.75;5.50
29460;PMS7003;16428;47.836;35.106;2024-03-29T04:59:34;9.50;7.50;6.25
29460;PMS7003;16428;47.836;35.106;2024-03-29T05:02:00;11.25;7.75;7.25
29460;PMS7003;16428;47.836;35.106;2024-03-29T05:04:26;12.00;8.33;7.00
29460;PMS7003;16428;47.836;35.106;2024-03-29T05:06:56;13.67;9.00;8.00
29460;PMS7003;16428;47.836;35.106;2024-03-29T05:09:23;8.00;3.00;2.00
29460;PMS7003;16428;47.836;35.106;2024-03-29T05:11:50;10.67;10.67;8.33
29460;PMS7003;16428;47.836;35.106;2024-03-29T05:14:19;9.00;9.00;7.33
29460;PMS7003;16428;47.836;35.106;2024-03-29T05:16:46;11.00;11.00;6.00
29460;PMS7003;16428;47.836;35.106;2024-03-29T05:19:13;12.67;7.33;6.00
29460;PMS7003;16428;47.836;35.106;2024-03-29T05:21:40;15.00;8.00;6.00
29460;PMS7003;16428;47.836;35.106;2024-03-29T05:24:07;16.00;9.33;8.00
29460;PMS7003;16428;47.836;35.106;2024-03-29T05:26:33;9.00;8.67;7.67
29460;PMS7003;16428;47.836;35.106;2024-03-29T05:28:59;15.33;8.67;7.00
29460;PMS7003;16428;47.836;35.106;2024-03-29T05:31:26;12.33;10.00;6.33
29460;PMS7003;16428;47.836;35.106;2024-03-29T05:33:55;14.00;11.50;8.50
29460;PMS7003;16428;47.836;35.106;2024-03-29T05:36:21;10.25;10.25;8.25
29460;PMS7003;16428;47.836;35.106;2024-03-29T05:38:49;8.75;5.25;4.00
29460;PMS7003;16428;47.836;35.106;2024-03-29T05:41:15;13.67;10.00;7.00
29460;PMS7003;16428;47.836;35.106;2024-03-29T05:43:41;11.00;10.00;9.00
29460;PMS7003;16428;47.836;35.106;2024-03-29T05:46:07;14.00;9.25;5.50
29460;PMS7003;16428;47.836;35.106;2024-03-29T05:48:33;10.75;9.00;6.75
29460;PMS7003;16428;47.836;35.106;2024-03-29T05:50:59;12.25;9.50;6.00
29460;PMS7003;16428;47.836;35.106;2024-03-29T05:53:25;14.00;10.75;8.75
29460;PMS7003;16428;47.836;35.106;2024-03-29T05:55:51;16.00;14.67;9.00
29460;PMS7003;16428;47.836;35.106;2024-03-29T05:58:17;15.00;11.33;7.00
29460;PMS7003;16428;47.836;35.106;2024-03-29T06:00:44;15.50;11.00;8.00
29460;PMS7003;16428;47.836;35.106;2024-03-29T06:03:10;12.25;10.25;7.25
29460;PMS7003;16428;47.836;35.106;2024-03-29T06:05:36;10.33;8.00;6.33
29460;PMS7003;16428;47.836;35.106;2024-03-29T06:08:02;6.00;4.25;3.00
29460;PMS7003;16428;47.836;35.106;2024-03-29T06:10:31;11.00;8.75;7.00
29460;PMS7003;16428;47.836;35.106;2024-03-29T06:12:57;10.00;8.00;7.50
29460;PMS7003;16428;47.836;35.106;2024-03-29T06:15:33;8.50;8.50;6.75
29460;PMS7003;16428;47.836;35.106;2024-03-29T06:18:34;7.75;5.50;4.00
29460;PMS7003;16428;47.836;35.106;2024-03-29T06:21:00;9.33;9.00;7.00
29460;PMS7003;16428;47.836;35.106;2024-03-29T06:23:26;11.25;9.00;6.25
29460;PMS7003;16428;47.836;35.106;2024-03-29T06:25:52;16.00;8.00;7.00
29460;PMS7003;16428;47.836;35.106;2024-03-29T06:28:18;11.33;9.00;6.67
29460;PMS7003;16428;47.836;35.106;2024-03-29T06:30:44;9.50;9.50;8.00
29460;PMS7003;16428;47.836;35.106;2024-03-29T06:33:10;15.00;11.00;8.00
29460;PMS7003;16428;47.836;35.106;2024-03-29T06:35:36;13.75;11.00;7.50
29460;PMS7003;16428;47.836;35.106;2024-03-29T06:38:02;9.67;9.67;7.67
29460;PMS7003;16428;47.836;35.106;2024-03-29T06:40:29;8.50;8.50;6.25
29460;PMS7003;16428;47.836;35.106;2024-03-29T06:42:55;7.50;7.50;6.00
29460;PMS7003;16428;47.836;35.106;2024-03-29T06:45:23;14.75;10.75;6.25
29460;PMS7003;16428;47.836;35.106;2024-03-29T06:47:49;18.00;12.00;9.00
29460;PMS7003;16428;47.836;35.106;2024-03-29T06:50:16;11.25;8.00;6.25
29460;PMS7003;16428;47.836;35.106;2024-03-29T06:52:42;13.00;8.75;6.25
29460;PMS7003;16428;47.836;35.106;2024-03-29T06:55:08;12.50;8.25;6.25
29460;PMS7003;16428;47.836;35.106;2024-03-29T06:57:35;10.50;8.25;7.00
29460;PMS7003;16428;47.836;35.106;2024-03-29T07:00:02;7.67;7.67;5.67
29460;PMS7003;16428;47.836;35.106;2024-03-29T07:02:29;14.25;9.75;6.00
29460;PMS7003;16428;47.836;35.106;2024-03-29T07:04:55;10.00;10.00;7.50
29460;PMS7003;16428;47.836;35.106;2024-03-29T07:07:22;12.75;8.75;6.00
29460;PMS7003;16428;47.836;35.106;2024-03-29T07:09:48;14.00;10.25;8.00
29460;PMS7003;16428;47.836;35.106;2024-03-29T07:12:14;9.50;7.50;6.00
29460;PMS7003;16428;47.836;35.106;2024-03-29T07:14:40;11.25;8.00;6.25
29460;PMS7003;16428;47.836;35.106;2024-03-29T07:17:06;12.50;8.50;7.50
29460;PMS7003;16428;47.836;35.106;2024-03-29T07:19:33;9.25;8.50;7.25
29460;PMS7003;16428;47.836;35.106;2024-03-29T07:21:59;12.50;6.75;5.50
29460;PMS7003;16428;47.836;35.106;2024-03-29T07:24:25;14.67;10.33;8.67
29460;PMS7003;16428;47.836;35.106;2024-03-29T07:26:53;9.50;9.50;8.00
29460;PMS7003;16428;47.836;35.106;2024-03-29T07:29:19;12.00;12.00;9.50
29460;PMS7003;16428;47.836;35.106;2024-03-29T07:31:46;13.25;11.00;8.25
29460;PMS7003;16428;47.836;35.106;2024-03-29T07:34:11;12.33;11.33;8.33
29460;PMS7003;16428;47.836;35.106;2024-03-29T07:36:37;10.00;7.67;6.00
29460;PMS7003;16428;47.836;35.106;2024-03-29T07:39:05;10.75;8.75;7.50
29460;PMS7003;16428;47.836;35.106;2024-03-29T07:41:32;12.25;9.50;7.00
29460;PMS7003;16428;47.836;35.106;2024-03-29T07:43:58;11.50;11.00;8.00
29460;PMS7003;16428;47.836;35.106;2024-03-29T07:46:32;8.75;7.50;6.75
29460;PMS7003;16428;47.836;35.106;2024-03-29T07:48:59;10.50;10.00;6.00
29460;PMS7003;16428;47.836;35.106;2024-03-29T07:51:26;13.75;12.25;9.50
29460;PMS7003;16428;47.836;35.106;2024-03-29T07:53:52;10.25;7.75;6.75
29460;PMS7003;16428;47.836;35.106;2024-03-29T07:56:18;15.50;8.25;5.25
29460;PMS7003;16428;47.836;35.106;2024-03-29T07:58:44;6.00;6.00;5.00
29460;PMS7003;16428;47.836;35.106;2024-03-29T08:01:17;11.50;8.00;7.00
29460;PMS7003;16428;47.836;35.106;2024-03-29T08:03:43;10.25;4.75;4.00
29460;PMS7003;16428;47.836;35.106;2024-03-29T08:06:09;8.50;6.50;4.50
29460;PMS7003;16428;47.836;35.106;2024-03-29T08:08:35;11.00;7.67;6.33
29460;PMS7003;16428;47.836;35.106;2024-03-29T08:11:01;8.50;6.75;6.25
29460;PMS7003;16428;47.836;35.106;2024-03-29T08:13:27;8.50;6.25;5.25
29460;PMS7003;16428;47.836;35.106;2024-03-29T08:16:00;10.33;8.33;7.00
29460;PMS7003;16428;47.836;35.106;2024-03-29T08:18:27;7.75;6.75;6.75
29460;PMS7003;16428;47.836;35.106;2024-03-29T08:20:54;4.75;4.75;3.75
29460;PMS7003;16428;47.836;35.106;2024-03-29T08:23:25;2.25;2.25;2.25
29460;PMS7003;16428;47.836;35.106;2024-03-29T08:25:52;8.50;7.50;6.25
29460;PMS7003;16428;47.836;35.106;2024-03-29T08:28:21;7.50;7.50;6.00
29460;PMS7003;16428;47.836;35.106;2024-03-29T08:30:58;9.50;7.00;5.25
29460;PMS7003;16428;47.836;35.106;2024-03-29T08:33:28;7.00;7.00;5.25
29460;PMS7003;16428;47.836;35.106;2024-03-29T08:35:54;11.50;8.50;7.00
29460;PMS7003;16428;47.836;35.106;2024-03-29T08:38:20;14.50;9.50;6.00
29460;PMS7003;16428;47.836;35.106;2024-03-29T08:40:46;11.67;11.33;7.00
29460;PMS7003;16428;47.836;35.106;2024-03-29T08:43:15;9.00;9.00;7.50
29460;PMS7003;16428;47.836;35.106;2024-03-29T08:45:45;6.40;6.00;5.00
29460;PMS7003;16428;47.836;35.106;2024-03-29T08:48:11;11.25;8.75;7.75
29460;PMS7003;16428;47.836;35.106;2024-03-29T08:50:37;7.75;7.75;6.00
29460;PMS7003;16428;47.836;35.106;2024-03-29T08:53:04;7.75;6.25;4.00
29460;PMS7003;16428;47.836;35.106;2024-03-29T08:55:30;9.75;8.00;7.00
29460;PMS7003;16428;47.836;35.106;2024-03-29T08:57:58;8.25;6.75;5.00
29460;PMS7003;16428;47.836;35.106;2024-03-29T09:00:28;8.00;8.00;6.25
29460;PMS7003;16428;47.836;35.106;2024-03-29T09:02:55;7.00;6.25;4.50
29460;PMS7003;16428;47.836;35.106;2024-03-29T09:05:22;8.00;5.00;3.50
29460;PMS7003;16428;47.836;35.106;2024-03-29T09:07:48;13.50;9.00;6.75
29460;PMS7003;16428;47.836;35.106;2024-03-29T09:10:15;7.00;6.25;5.50
29460;PMS7003;16428;47.836;35.106;2024-03-29T09:12:41;5.75;3.75;3.00
29460;PMS7003;16428;47.836;35.106;2024-03-29T09:15:07;9.40;7.20;5.20
29460;PMS7003;16428;47.836;35.106;2024-03-29T09:17:39;9.25;9.25;6.25
29460;PMS7003;16428;47.836;35.106;2024-03-29T09:20:06;9.60;7.60;6.40
29460;PMS7003;16428;47.836;35.106;2024-03-29T09:22:33;9.60;7.00;5.20
29460;PMS7003;16428;47.836;35.106;2024-03-29T09:25:00;10.20;9.20;6.60
29460;PMS7003;16428;47.836;35.106;2024-03-29T09:27:26;10.60;8.40;6.40
29460;PMS7003;16428;47.836;35.106;2024-03-29T09:29:54;7.20;5.20;4.40
29460;PMS7003;16428;47.836;35.106;2024-03-29T09:32:21;9.80;6.80;5.80
29460;PMS7003;16428;47.836;35.106;2024-03-29T09:34:48;7.80;7.80;5.40
29460;PMS7003;16428;47.836;35.106;2024-03-29T09:37:14;1.80;1.80;0.60
29460;PMS7003;16428;47.836;35.106;2024-03-29T09:39:41;10.00;7.40;5.20
29460;PMS7003;16428;47.836;35.106;2024-03-29T09:42:07;6.00;4.00;3.40
29460;PMS7003;16428;47.836;35.106;2024-03-29T09:44:41;6.20;6.20;5.00
29460;PMS7003;16428;47.836;35.106;2024-03-29T09:47:09;5.20;5.20;5.00
29460;PMS7003;16428;47.836;35.106;2024-03-29T09:49:37;5.80;5.80;5.00
29460;PMS7003;16428;47.836;35.106;2024-03-29T09:52:05;5.00;4.80;3.00
29460;PMS7003;16428;47.836;35.106;2024-03-29T09:54:33;7.80;6.60;5.00
29460;PMS7003;16428;47.836;35.106;2024-03-29T09:56:59;11.40;8.20;6.60
29460;PMS7003;16428;47.836;35.106;2024-03-29T09:59:25;7.00;6.00;4.40
29460;PMS7003;16428;47.836;35.106;2024-03-29T10:01:53;5.20;5.20;4.80
29460;PMS7003;16428;47.836;35.106;2024-03-29T10:04:21;5.20;1.80;1.00
29460;PMS7003;16428;47.836;35.106;2024-03-29T10:06:50;5.00;4.20;4.00
29460;PMS7003;16428;47.836;35.106;2024-03-29T10:09:17;5.60;3.20;2.00
29460;PMS7003;16428;47.836;35.106;2024-03-29T10:11:44;9.40;5.80;4.40
29460;PMS7003;16428;47.836;35.106;2024-03-29T10:14:11;5.60;4.00;3.20
29460;PMS7003;16428;47.836;35.106;2024-03-29T10:16:37;7.20;4.80;3.80
29460;PMS7003;16428;47.836;35.106;2024-03-29T10:19:03;6.80;4.00;3.40
29460;PMS7003;16428;47.836;35.106;2024-03-29T10:21:30;4.20;4.20;3.40
29460;PMS7003;16428;47.836;35.106;2024-03-29T10:23:56;4.00;4.00;2.60
29460;PMS7003;16428;47.836;35.106;2024-03-29T10:26:22;3.40;3.00;2.40
29460;PMS7003;16428;47.836;35.106;2024-03-29T10:28:48;4.20;4.20;4.00
29460;PMS7003;16428;47.836;35.106;2024-03-29T10:31:14;4.00;4.00;3.00
29460;PMS7003;16428;47.836;35.106;2024-03-29T10:33:44;3.60;3.00;2.00
29460;PMS7003;16428;47.836;35.106;2024-03-29T10:36:10;7.00;4.80;3.80
29460;PMS7003;16428;47.836;35.106;2024-03-29T10:38:38;3.80;3.40;2.00
29460;PMS7003;16428;47.836;35.106;2024-03-29T10:41:04;6.20;6.20;4.80
29460;PMS7003;16428;47.836;35.106;2024-03-29T10:43:32;3.20;3.20;3.00
29460;PMS7003;16428;47.836;35.106;2024-03-29T10:46:02;8.00;5.00;4.00
29460;PMS7003;16428;47.836;35.106;2024-03-29T10:48:30;3.20;3.20;2.60
29460;PMS7003;16428;47.836;35.106;2024-03-29T10:51:01;7.80;7.80;7.00
29460;PMS7003;16428;47.836;35.106;2024-03-29T10:53:28;7.00;5.00;4.20
29460;PMS7003;16428;47.836;35.106;2024-03-29T10:55:58;4.40;4.40;3.00
29460;PMS7003;16428;47.836;35.106;2024-03-29T10:58:28;6.60;4.00;3.80
29460;PMS7003;16428;47.836;35.106;2024-03-29T11:00:59;5.20;3.80;3.20
29460;PMS7003;16428;47.836;35.106;2024-03-29T11:03:36;4.00;4.00;2.80
29460;PMS7003;16428;47.836;35.106;2024-03-29T11:06:04;5.20;5.20;3.20
29460;PMS7003;16428;47.836;35.106;2024-03-29T11:08:32;6.40;4.00;3.00
29460;PMS7003;16428;47.836;35.106;2024-03-29T11:11:04;4.80;4.40;3.80
29460;PMS7003;16428;47.836;35.106;2024-03-29T11:15:57;4.00;3.60;3.40
29460;PMS7003;16428;47.836;35.106;2024-03-29T11:18:26;6.40;6.40;5.60
29460;PMS7003;16428;47.836;35.106;2024-03-29T11:20:54;8.20;6.40;5.80
29460;PMS7003;16428;47.836;35.106;2024-03-29T11:23:22;3.00;3.00;2.00
29460;PMS7003;16428;47.836;35.106;2024-03-29T11:25:50;8.20;5.00;3.00
29460;PMS7003;16428;47.836;35.106;2024-03-29T11:31:02;2.80;2.80;2.00
29460;PMS7003;16428;47.836;35.106;2024-03-29T11:33:33;4.00;4.00;3.20
29460;PMS7003;16428;47.836;35.106;2024-03-29T11:36:10;2.40;2.20;2.00
29460;PMS7003;16428;47.836;35.106;2024-03-29T11:38:38;2.60;2.60;1.60
29460;PMS7003;16428;47.836;35.106;2024-03-29T11:43:31;3.60;1.00;0.40
29460;PMS7003;16428;47.836;35.106;2024-03-29T11:46:02;2.80;2.80;1.40
29460;PMS7003;16428;47.836;35.106;2024-03-29T11:48:30;3.00;0.00;0.00
29460;PMS7003;16428;47.836;35.106;2024-03-29T11:50:57;2.00;2.00;2.00
29460;PMS7003;16428;47.836;35.106;2024-03-29T11:53:24;1.80;1.80;1.00
29460;PMS7003;16428;47.836;35.106;2024-03-29T11:55:50;3.80;0.40;0.00
29460;PMS7003;16428;47.836;35.106;2024-03-29T11:58:23;3.00;1.80;1.00
29460;PMS7003;16428;47.836;35.106;2024-03-29T12:00:53;4.60;2.20;2.00
29460;PMS7003;16428;47.836;35.106;2024-03-29T12:03:21;2.00;2.00;1.40
29460;PMS7003;16428;47.836;35.106;2024-03-29T12:05:48;1.80;1.80;1.00
29460;PMS7003;16428;47.836;35.106;2024-03-29T12:08:24;4.60;1.20;0.40
29460;PMS7003;16428;47.836;35.106;2024-03-29T12:10:53;1.80;0.80;0.60
29460;PMS7003;16428;47.836;35.106;2024-03-29T12:13:20;2.00;1.00;0.80
29460;PMS7003;16428;47.836;35.106;2024-03-29T12:15:46;1.00;1.00;1.00
29460;PMS7003;16428;47.836;35.106;2024-03-29T12:18:12;0.00;0.00;0.00
29460;PMS7003;16428;47.836;35.106;2024-03-29T12:20:38;0.20;0.00;0.00
29460;PMS7003;16428;47.836;35.106;2024-03-29T12:23:05;0.00;0.00;0.00
29460;PMS7003;16428;47.836;35.106;2024-03-29T12:25:33;1.80;1.80;1.80
29460;PMS7003;16428;47.836;35.106;2024-03-29T12:28:02;0.40;0.40;0.00
29460;PMS7003;16428;47.836;35.106;2024-03-29T12:30:29;2.60;2.60;2.60
29460;PMS7003;16428;47.836;35.106;2024-03-29T12:33:03;1.40;1.40;0.20
29460;PMS7003;16428;47.836;35.106;2024-03-29T12:35:32;4.00;1.60;1.60
29460;PMS7003;16428;47.836;35.106;2024-03-29T12:37:59;1.00;1.00;1.00
29460;PMS7003;16428;47.836;35.106;2024-03-29T12:40:27;1.80;1.80;1.20
29460;PMS7003;16428;47.836;35.106;2024-03-29T12:42:56;1.00;1.00;1.00
29460;PMS7003;16428;47.836;35.106;2024-03-29T12:45:24;4.00;4.00;3.00
29460;PMS7003;16428;47.836;35.106;2024-03-29T12:47:51;7.00;5.80;4.20
29460;PMS7003;16428;47.836;35.106;2024-03-29T12:52:59;1.00;1.00;1.00
29460;PMS7003;16428;47.836;35.106;2024-03-29T12:55:27;5.60;5.60;4.60
29460;PMS7003;16428;47.836;35.106;2024-03-29T12:57:56;13.00;1.80;1.40
29460;PMS7003;16428;47.836;35.106;2024-03-29T13:00:26;0.80;0.20;0.00
29460;PMS7003;16428;47.836;35.106;2024-03-29T13:02:55;1.40;1.40;1.00
29460;PMS7003;16428;47.836;35.106;2024-03-29T13:05:21;2.00;0.00;0.00
29460;PMS7003;16428;47.836;35.106;2024-03-29T13:07:48;2.00;1.00;1.00
29460;PMS7003;16428;47.836;35.106;2024-03-29T13:10:14;4.80;2.20;2.00
29460;PMS7003;16428;47.836;35.106;2024-03-29T13:12:49;1.80;1.80;1.00
29460;PMS7003;16428;47.836;35.106;2024-03-29T13:15:19;0.00;0.00;0.00
29460;PMS7003;16428;47.836;35.106;2024-03-29T13:17:46;1.00;1.00;0.80
29460;PMS7003;16428;47.836;35.106;2024-03-29T13:20:15;3.00;1.20;0.00
29460;PMS7003;16428;47.836;35.106;2024-03-29T13:22:42;0.00;0.00;0.00
29460;PMS7003;16428;47.836;35.106;2024-03-29T13:25:21;3.80;1.20;1.00
29460;PMS7003;16428;47.836;35.106;2024-03-29T13:27:48;0.40;0.40;0.40
29460;PMS7003;16428;47.836;35.106;2024-03-29T13:30:20;1.80;1.80;1.60
29460;PMS7003;16428;47.836;35.106;2024-03-29T13:32:47;1.00;1.00;1.00
29460;PMS7003;16428;47.836;35.106;2024-03-29T13:35:14;0.20;0.20;0.00
29460;PMS7003;16428;47.836;35.106;2024-03-29T13:37:44;1.00;1.00;1.00
29460;PMS7003;16428;47.836;35.106;2024-03-29T13:40:14;1.80;0.60;0.40
29460;PMS7003;16428;47.836;35.106;2024-03-29T13:42:42;2.00;2.00;1.40
29460;PMS7003;16428;47.836;35.106;2024-03-29T13:45:08;7.80;3.00;2.20
29460;PMS7003;16428;47.836;35.106;2024-03-29T13:47:36;3.00;1.00;1.00
29460;PMS7003;16428;47.836;35.106;2024-03-29T13:50:05;2.00;0.00;0.00
29460;PMS7003;16428;47.836;35.106;2024-03-29T13:52:32;3.00;3.00;2.00
29460;PMS7003;16428;47.836;35.106;2024-03-29T13:54:59;5.00;2.00;1.60
29460;PMS7003;16428;47.836;35.106;2024-03-29T13:57:26;2.60;0.80;0.40
29460;PMS7003;16428;47.836;35.106;2024-03-29T13:59:52;2.60;2.00;2.00
29460;PMS7003;16428;47.836;35.106;2024-03-29T14:02:18;1.00;1.00;0.40
29460;PMS7003;16428;47.836;35.106;2024-03-29T14:04:46;0.80;0.80;0.80
29460;PMS7003;16428;47.836;35.106;2024-03-29T14:07:13;0.00;0.00;0.00
29460;PMS7003;16428;47.836;35.106;2024-03-29T14:09:40;5.80;3.20;2.00
29460;PMS7003;16428;47.836;35.106;2024-03-29T14:12:07;4.80;1.40;0.40
29460;PMS7003;16428;47.836;35.106;2024-03-29T14:14:34;4.20;2.40;2.20
29460;PMS7003;16428;47.836;35.106;2024-03-29T14:17:00;1.00;1.00;1.00
29460;PMS7003;16428;47.836;35.106;2024-03-29T14:19:32;1.80;0.80;0.00
29460;PMS7003;16428;47.836;35.106;2024-03-29T14:21:59;0.00;0.00;0.00
29460;PMS7003;16428;47.836;35.106;2024-03-29T14:24:26;4.40;0.00;0.00